Flight Track Log - Related Links

Times and Time Zones

All times are in EDT time to prevent confusion due to time zone crossing. See the GJS3615 flight status page for this flight to view local times or setup timezone preferences in your user account.

Time Position Orientation Groundspeed Altitude Reporting Facility
EDT Latitude Longitude Course Direction KTS MPH feet Rate Location/Type
Tue 08:31:50 AM 43.0553 -89.3222 164° South 211 243 4,000  Level Chicago Center
Tue 08:32:52 AM 42.9858 -89.2903 161° South 243 280 7,200 2,855 Climbing Chicago Center
Tue 08:33:54 AM 42.9144 -89.2614 163° South 266 306 9,900 1,935 Climbing Chicago Center
Tue 08:34:00 AM 42.8648 -89.2167 180° South  Level FlightAware Approximate
Tue 08:34:56 AM 42.8339 -89.2281 163° South 301 346 11,200  Level Chicago Center
Tue 08:35:00 AM 42.7954 -89.2015 164° South  Level FlightAware Approximate
Tue 08:35:58 AM 42.7372 -89.1844 162° South 357 411 12,700  Level Chicago Center
Tue 08:36:00 AM 42.7272 -89.1742 164° South  Level FlightAware Approximate
Tue 08:36:59 AM 42.6367 -89.1414 163° South 376 433 13,000  Level Chicago Center
Tue 08:37:00 AM 42.6537 -89.1448 164° South  Level FlightAware Approximate
Tue 08:38:01 AM 42.5386 -89.0481 145° Southeast 389 448 13,000  Level Chicago Center
Tue 08:39:03 AM 42.4969 -88.9072 112° Southeast 403 464 13,000 -581 Level Chicago Center
Tue 08:40:05 AM 42.4558 -88.7681 112° Southeast 400 460 11,800 -1,306 Descending Chicago Center
Tue 08:41:07 AM 42.4169 -88.6406 112° Southeast 373 429 10,300 -1,366 Descending Chicago Center
Tue 08:42:08 AM 42.3822 -88.5253 112° Southeast 340 391 9,000 -829 Descending Chicago Center
Tue 08:43:10 AM 42.3383 -88.4467 127° Southeast 277 319 8,600 -968 Descending Chicago Center
Tue 08:44:12 AM 42.3314 -88.3369 95° East 262 302 7,000 -774 Descending Chicago Center
Tue 08:45:14 AM 42.2983 -88.2864 131° Southeast 211 243 7,000  Level Chicago Center
Tue 08:46:15 AM 42.2614 -88.2422 138° Southeast 182 209 7,000 -341 Level Chicago Center
Tue 08:47:17 AM 42.2161 -88.1908 140° Southeast 178 205 6,300 -919 Descending Chicago Center
Tue 08:48:19 AM 42.1797 -88.1478 139° Southeast 176 203 5,100 -732 Descending Chicago Center
Tue 08:49:20 AM 42.1431 -88.1072 141° Southeast 173 199 4,800 -743 Descending Chicago Center
Tue 08:50:04 AM 42.1167 -88.0667 131° Southeast 175 201 3,800 -1,364 Descending Chicago TRACON

Login

Don't have an account? Register now (free) for customized features, flight alerts, and more!